TimeCST,TemperatureF,Dew PointF,Humidity,Sea Level PressureIn,VisibilityMPH,Wind Direction,Wind SpeedMPH,Gust SpeedMPH,PrecipitationIn,Events,Conditions,WindDirDegrees,DateUTC
12:53 AM,52.0,39.0,61,30.21,-9999.0,North,5.8,-,0.01,,Unknown,10,2013-01-03 06:53:00
1:53 AM,55.9,39.0,53,30.24,-9999.0,North,5.8,-,0.03,,Unknown,360,2013-01-03 07:53:00
2:53 AM,55.0,39.0,55,30.23,-9999.0,North,6.9,-,N/A,,Unknown,10,2013-01-03 08:53:00
3:53 AM,53.1,37.0,55,30.25,-9999.0,Variable,5.8,-,0.01,,Unknown,0,2013-01-03 09:53:00
4:53 AM,54.0,36.0,51,30.27,-9999.0,Variable,4.6,-,N/A,,Unknown,0,2013-01-03 10:53:00
5:53 AM,52.0,35.1,53,30.26,-9999.0,Variable,5.8,-,N/A,,Unknown,0,2013-01-03 11:53:00
6:53 AM,55.0,34.0,45,30.28,-9999.0,North,8.1,-,N/A,,Unknown,10,2013-01-03 12:53:00
7:53 AM,52.0,33.1,49,30.30,-9999.0,North,5.8,-,N/A,,Unknown,10,2013-01-03 13:53:00
8:53 AM,53.1,32.0,45,30.31,-9999.0,Variable,5.8,-,N/A,,Unknown,0,2013-01-03 14:53:00
9:53 AM,54.0,30.9,41,30.34,-9999.0,North,10.4,16.1,N/A,,Unknown,10,2013-01-03 15:53:00
10:53 AM,54.0,33.1,45,30.32,-9999.0,Variable,6.9,-,N/A,,Unknown,0,2013-01-03 16:53:00
11:53 AM,57.9,33.1,39,30.30,-9999.0,North,11.5,18.4,N/A,,Unknown,360,2013-01-03 17:53:00
12:53 PM,60.1,34.0,38,30.26,-9999.0,NNE,8.1,17.3,N/A,,Unknown,30,2013-01-03 18:53:00
1:53 PM,64.9,33.1,31,30.25,-9999.0,North,8.1,18.4,N/A,,Unknown,10,2013-01-03 19:53:00
2:53 PM,66.9,33.1,28,30.25,-9999.0,Variable,6.9,-,N/A,,Unknown,0,2013-01-03 20:53:00
3:53 PM,64.0,34.0,33,30.27,-9999.0,Variable,3.5,-,N/A,,Unknown,0,2013-01-03 21:53:00
4:53 PM,57.9,34.0,41,30.29,-9999.0,Calm,Calm,-,N/A,,Unknown,0,2013-01-03 22:53:00
5:53 PM,55.9,35.1,45,30.32,-9999.0,Calm,Calm,-,N/A,,Unknown,0,2013-01-03 23:53:00
6:53 PM,55.0,34.0,45,30.35,-9999.0,Calm,Calm,-,N/A,,Unknown,0,2013-01-04 00:53:00
7:53 PM,60.1,35.1,39,30.35,-9999.0,North,5.8,-,N/A,,Unknown,360,2013-01-04 01:53:00
8:53 PM,51.1,34.0,52,30.37,-9999.0,Calm,Calm,-,N/A,,Unknown,0,2013-01-04 02:53:00
9:53 PM,48.0,35.1,61,30.38,-9999.0,Calm,Calm,-,N/A,,Unknown,0,2013-01-04 03:53:00
10:53 PM,48.0,34.0,58,30.38,-9999.0,Calm,Calm,-,N/A,,Unknown,0,2013-01-04 04:53:00
11:53 PM,50.0,34.0,54,30.39,-9999.0,Calm,Calm,-,N/A,,Unknown,0,2013-01-04 05:53:00